createdAt,value
2023-05-07T00:01:03.974Z,15.67
2023-05-07T00:03:36.240Z,15.67
2023-05-07T00:06:08.873Z,15.64
2023-05-07T00:08:41.098Z,15.63
2023-05-07T00:11:13.355Z,15.58
2023-05-07T00:13:45.579Z,15.52
2023-05-07T00:16:17.896Z,15.48
2023-05-07T00:18:50.332Z,15.46
2023-05-07T00:21:23.400Z,15.34
2023-05-07T00:23:55.805Z,15.29
2023-05-07T00:26:27.992Z,15.20
2023-05-07T00:29:00.187Z,15.06
2023-05-07T00:31:32.503Z,14.94
2023-05-07T00:34:04.787Z,14.84
2023-05-07T00:36:37.199Z,14.75
2023-05-07T00:39:09.913Z,14.70
2023-05-07T00:41:42.187Z,14.66
2023-05-07T00:44:14.499Z,14.60
2023-05-07T00:46:49.925Z,14.55
2023-05-07T00:49:22.687Z,14.43
2023-05-07T00:51:55.145Z,14.36
2023-05-07T00:54:27.548Z,14.31
2023-05-07T00:57:00.152Z,14.29
2023-05-07T00:59:33.106Z,14.28
2023-05-07T01:02:05.743Z,14.26
2023-05-07T01:04:38.907Z,14.26
2023-05-07T01:07:12.080Z,14.26
2023-05-07T01:09:44.482Z,14.26
2023-05-07T01:12:17.443Z,14.26
2023-05-07T01:14:50.904Z,14.22
2023-05-07T01:17:23.289Z,14.22
2023-05-07T01:19:55.888Z,14.21
2023-05-07T01:22:34.782Z,14.25
2023-05-07T01:25:09.290Z,14.22
2023-05-07T01:27:41.762Z,14.20
2023-05-07T01:30:14.884Z,14.18
2023-05-07T01:32:53.361Z,14.15
2023-05-07T01:35:28.061Z,14.10
2023-05-07T01:38:01.073Z,14.02
2023-05-07T01:40:33.559Z,13.98
2023-05-07T01:43:07.477Z,13.96
2023-05-07T01:45:40.286Z,13.91
2023-05-07T01:48:15.184Z,13.88
2023-05-07T01:50:48.676Z,13.87
2023-05-07T01:53:21.067Z,13.85
2023-05-07T01:55:53.210Z,13.79
2023-05-07T01:58:25.530Z,13.83
2023-05-07T02:00:57.726Z,13.83
2023-05-07T02:03:30.204Z,13.82
2023-05-07T02:06:02.435Z,13.80
2023-05-07T02:08:35.128Z,13.76
2023-05-07T02:11:07.592Z,13.74
2023-05-07T02:13:40.249Z,13.73
2023-05-07T02:16:14.835Z,13.71
2023-05-07T02:18:46.969Z,13.69
2023-05-07T02:21:19.210Z,13.67
2023-05-07T02:23:51.723Z,13.66
2023-05-07T02:26:23.916Z,13.65
2023-05-07T02:28:56.213Z,13.63
2023-05-07T02:31:28.624Z,13.60
2023-05-07T02:34:00.904Z,13.59
2023-05-07T02:36:33.348Z,13.58
2023-05-07T02:39:05.570Z,13.56
2023-05-07T02:41:37.879Z,13.56
2023-05-07T02:44:10.284Z,13.54
2023-05-07T02:46:42.675Z,13.56
2023-05-07T02:49:14.929Z,13.57
2023-05-07T02:51:47.424Z,13.55
2023-05-07T02:54:19.769Z,13.54
2023-05-07T02:56:51.984Z,13.51
2023-05-07T02:59:24.376Z,13.43
2023-05-07T03:01:56.888Z,13.35
2023-05-07T03:04:29.165Z,13.31
2023-05-07T03:07:01.606Z,13.29
2023-05-07T03:09:33.976Z,13.26
2023-05-07T03:12:06.327Z,13.22
2023-05-07T03:14:38.618Z,13.19
2023-05-07T03:17:10.811Z,13.13
2023-05-07T03:19:43.049Z,13.07
2023-05-07T03:22:15.363Z,13.02
2023-05-07T03:24:47.721Z,12.99
2023-05-07T03:27:20.161Z,12.97
2023-05-07T03:29:52.399Z,12.95
2023-05-07T03:32:24.885Z,12.95
2023-05-07T03:34:56.958Z,12.94
2023-05-07T03:37:29.416Z,12.95
2023-05-07T03:40:01.701Z,12.96
2023-05-07T03:42:34.080Z,12.98
2023-05-07T03:45:07.418Z,12.99
2023-05-07T03:47:39.733Z,13.01
2023-05-07T03:50:13.533Z,13.03
2023-05-07T03:52:46.301Z,13.08
2023-05-07T03:55:19.107Z,13.10
2023-05-07T03:57:51.468Z,13.15
2023-05-07T04:00:24.195Z,13.19
2023-05-07T04:02:56.561Z,13.25
2023-05-07T04:05:29.760Z,13.31
2023-05-07T04:08:03.487Z,13.36
2023-05-07T04:10:35.730Z,13.44
2023-05-07T04:13:08.011Z,13.50
2023-05-07T04:15:40.784Z,13.56
2023-05-07T04:18:13.033Z,13.61
2023-05-07T04:20:45.566Z,13.63
2023-05-07T04:23:17.943Z,13.66
2023-05-07T04:25:50.448Z,13.69
2023-05-07T04:28:22.767Z,13.73
2023-05-07T04:30:55.191Z,13.78
2023-05-07T04:33:27.450Z,13.81
2023-05-07T04:36:03.787Z,13.85
2023-05-07T04:38:36.256Z,13.88
2023-05-07T04:41:08.973Z,13.94
2023-05-07T04:43:41.191Z,13.98
2023-05-07T04:46:13.546Z,14.02
2023-05-07T04:48:45.911Z,14.04
2023-05-07T04:51:18.276Z,14.07
2023-05-07T04:53:51.627Z,14.14
2023-05-07T04:56:23.906Z,14.18
2023-05-07T04:58:56.141Z,14.23
2023-05-07T05:01:28.585Z,14.28
2023-05-07T05:04:01.781Z,14.34
2023-05-07T05:06:34.116Z,14.39
2023-05-07T05:09:07.005Z,14.47
2023-05-07T05:11:39.224Z,14.55
2023-05-07T05:14:11.621Z,14.62
2023-05-07T05:16:43.890Z,14.70
2023-05-07T05:19:16.293Z,14.77
2023-05-07T05:21:48.648Z,14.85
2023-05-07T05:24:21.177Z,14.92
2023-05-07T05:26:55.661Z,15.01
2023-05-07T05:29:27.918Z,15.09
2023-05-07T05:32:00.521Z,15.20
2023-05-07T05:34:34.206Z,15.29
2023-05-07T05:37:06.442Z,15.37
2023-05-07T05:39:38.649Z,15.49
2023-05-07T05:42:10.907Z,15.56
2023-05-07T05:44:43.153Z,15.64
2023-05-07T05:47:15.443Z,15.72
2023-05-07T05:49:47.606Z,15.81
2023-05-07T05:52:19.915Z,15.91
2023-05-07T05:54:52.208Z,16.01
2023-05-07T05:57:26.004Z,16.12
2023-05-07T05:59:59.272Z,16.22
2023-05-07T06:02:31.777Z,16.33
2023-05-07T06:05:04.253Z,16.43
2023-05-07T06:07:36.833Z,16.56
2023-05-07T06:10:11.028Z,16.68
2023-05-07T06:12:43.921Z,16.80
2023-05-07T06:15:16.319Z,16.98
2023-05-07T06:17:48.702Z,17.16
2023-05-07T06:20:21.359Z,17.32
2023-05-07T06:22:53.574Z,17.46
2023-05-07T06:25:25.979Z,17.60
2023-05-07T06:27:58.250Z,17.75
2023-05-07T06:30:31.049Z,17.86
2023-05-07T06:33:03.326Z,17.98
2023-05-07T06:35:35.661Z,18.16
2023-05-07T06:38:07.840Z,18.33
2023-05-07T06:40:40.150Z,18.55
2023-05-07T06:43:12.370Z,18.76
2023-05-07T06:45:44.908Z,18.94
2023-05-07T06:48:17.004Z,19.13
2023-05-07T06:50:49.338Z,19.31
2023-05-07T06:53:21.722Z,19.53
2023-05-07T06:55:54.167Z,19.78
2023-05-07T06:58:26.400Z,20.05
2023-05-07T07:00:58.765Z,20.22
2023-05-07T07:03:31.210Z,20.33
2023-05-07T07:06:04.449Z,20.51
2023-05-07T07:08:36.959Z,20.72
2023-05-07T07:11:09.369Z,20.97
2023-05-07T07:13:41.747Z,21.21
2023-05-07T07:16:14.386Z,21.42
2023-05-07T07:18:46.766Z,21.56
2023-05-07T07:21:21.731Z,21.71
2023-05-07T07:23:54.013Z,21.91
2023-05-07T07:26:26.377Z,22.09
2023-05-07T07:28:58.725Z,22.29
2023-05-07T07:31:32.114Z,22.47
2023-05-07T07:34:04.263Z,22.66
2023-05-07T07:36:45.685Z,22.98
2023-05-07T07:39:19.067Z,23.36
2023-05-07T07:41:51.178Z,23.71
2023-05-07T07:44:23.429Z,24.03
2023-05-07T07:46:55.712Z,24.30
2023-05-07T07:49:28.985Z,24.54
2023-05-07T07:52:01.808Z,24.56
2023-05-07T07:54:34.109Z,24.63
2023-05-07T07:57:06.536Z,24.85
2023-05-07T07:59:38.837Z,25.14
2023-05-07T08:02:11.381Z,25.28
2023-05-07T08:04:49.026Z,25.44
2023-05-07T08:07:26.895Z,25.61
2023-05-07T08:09:59.048Z,25.79
2023-05-07T08:12:34.165Z,25.77
2023-05-07T08:15:07.352Z,25.57
2023-05-07T08:17:39.795Z,25.49
2023-05-07T08:20:13.817Z,25.36
2023-05-07T08:22:46.543Z,25.18
2023-05-07T08:25:19.024Z,25.09
2023-05-07T08:27:51.153Z,25.21
2023-05-07T08:30:23.684Z,25.51
2023-05-07T08:32:55.839Z,25.77
2023-05-07T08:35:29.193Z,26.04
2023-05-07T08:38:01.475Z,26.22
2023-05-07T08:40:39.147Z,26.13
2023-05-07T08:43:14.992Z,26.04
2023-05-07T08:45:51.937Z,26.10
2023-05-07T08:48:27.906Z,26.07
2023-05-07T08:51:00.395Z,26.10
2023-05-07T08:53:32.950Z,26.14
2023-05-07T08:56:05.984Z,26.27
2023-05-07T08:58:38.203Z,26.36
2023-05-07T09:01:12.451Z,26.43
2023-05-07T09:03:46.516Z,26.37
2023-05-07T09:06:19.010Z,26.21
2023-05-07T09:08:55.739Z,26.04
2023-05-07T09:11:28.272Z,26.17
2023-05-07T09:14:02.646Z,26.31
2023-05-07T09:16:35.089Z,26.16
2023-05-07T09:19:07.361Z,26.03
2023-05-07T09:21:39.565Z,25.95
2023-05-07T09:24:12.104Z,25.78
2023-05-07T09:26:45.047Z,25.88
2023-05-07T09:29:19.498Z,25.97
2023-05-07T09:31:51.838Z,25.95
2023-05-07T09:34:24.517Z,25.82
2023-05-07T09:36:57.782Z,25.77
2023-05-07T09:39:42.873Z,25.90
2023-05-07T09:42:16.350Z,26.06
2023-05-07T09:44:49.340Z,26.26
2023-05-07T09:47:25.984Z,26.40
2023-05-07T09:50:01.980Z,26.27
2023-05-07T09:52:36.487Z,26.21
2023-05-07T09:55:09.850Z,26.22
2023-05-07T09:57:44.349Z,26.20
2023-05-07T10:00:20.405Z,26.11
2023-05-07T10:02:54.651Z,26.38
2023-05-07T10:05:28.455Z,26.46
2023-05-07T10:08:03.988Z,26.23
2023-05-07T10:10:37.889Z,26.16
2023-05-07T10:13:11.961Z,26.05
2023-05-07T10:15:45.916Z,25.99
2023-05-07T10:18:19.296Z,25.99
2023-05-07T10:20:53.583Z,25.95
2023-05-07T10:23:28.772Z,25.83
2023-05-07T10:26:02.418Z,25.57
2023-05-07T10:28:39.218Z,25.24
2023-05-07T10:31:28.486Z,24.99
2023-05-07T10:34:02.089Z,24.85
2023-05-07T10:36:38.260Z,25.02
2023-05-07T10:39:11.986Z,25.24
2023-05-07T10:41:44.416Z,25.27
2023-05-07T10:44:30.120Z,25.31
2023-05-07T10:47:12.323Z,25.24
2023-05-07T10:50:15.422Z,25.23
2023-05-07T10:53:07.700Z,25.04
2023-05-07T10:55:40.037Z,24.78
2023-05-07T10:58:33.141Z,24.72
2023-05-07T11:01:06.253Z,24.47
2023-05-07T11:03:58.557Z,24.23
2023-05-07T11:06:32.814Z,24.13
2023-05-07T11:09:05.327Z,24.02
2023-05-07T11:11:52.483Z,23.85
2023-05-07T11:14:47.202Z,23.72
2023-05-07T11:17:19.448Z,23.47
2023-05-07T11:19:56.717Z,23.40
2023-05-07T11:22:42.037Z,23.25
2023-05-07T11:25:19.588Z,23.09
2023-05-07T11:27:52.929Z,23.02
2023-05-07T11:30:26.038Z,23.12
2023-05-07T11:32:58.600Z,23.26
2023-05-07T11:35:31.792Z,23.36
2023-05-07T11:38:04.583Z,23.33
2023-05-07T11:40:36.808Z,23.31
2023-05-07T11:43:15.810Z,23.29
2023-05-07T11:45:48.749Z,23.31
2023-05-07T11:48:23.377Z,23.37
2023-05-07T11:51:02.012Z,23.46
2023-05-07T11:53:40.087Z,23.51
2023-05-07T11:56:14.292Z,23.51
2023-05-07T11:58:48.063Z,23.51
2023-05-07T12:01:20.366Z,23.51
2023-05-07T12:03:52.826Z,23.43
2023-05-07T12:06:25.399Z,23.30
2023-05-07T12:08:57.693Z,23.18
2023-05-07T12:11:30.089Z,23.05
2023-05-07T12:14:03.106Z,22.99
2023-05-07T12:16:36.558Z,23.00
2023-05-07T12:19:10.169Z,23.00
2023-05-07T12:21:43.077Z,22.85
2023-05-07T12:24:16.431Z,22.79
2023-05-07T12:26:49.073Z,22.82
2023-05-07T12:29:25.493Z,22.90
2023-05-07T12:31:58.023Z,23.02
2023-05-07T12:34:30.427Z,23.14
2023-05-07T12:37:05.927Z,23.20
2023-05-07T12:39:36.405Z,23.24
2023-05-07T12:42:08.888Z,23.23
2023-05-07T12:44:41.523Z,23.17
2023-05-07T12:47:16.101Z,23.06
2023-05-07T12:49:49.260Z,22.81
2023-05-07T12:52:22.705Z,22.64
2023-05-07T12:54:54.921Z,22.52
2023-05-07T12:57:27.488Z,22.46
2023-05-07T13:00:01.854Z,22.47
2023-05-07T13:02:40.112Z,22.50
2023-05-07T13:05:13.084Z,22.49
2023-05-07T13:07:56.815Z,22.46
2023-05-07T13:10:29.803Z,22.36
2023-05-07T13:13:02.258Z,22.22
2023-05-07T13:15:34.653Z,22.04
2023-05-07T13:18:07.486Z,21.96
2023-05-07T13:20:39.996Z,21.96
2023-05-07T13:23:12.166Z,22.01
2023-05-07T13:25:44.510Z,22.05
2023-05-07T13:28:16.887Z,22.10
2023-05-07T13:30:49.299Z,22.16
2023-05-07T13:33:21.929Z,22.17
2023-05-07T13:35:54.057Z,22.15
2023-05-07T13:38:26.308Z,22.16
2023-05-07T13:40:58.639Z,22.17
2023-05-07T13:43:30.853Z,22.20
2023-05-07T13:46:03.371Z,22.21
2023-05-07T13:48:35.882Z,22.20
2023-05-07T13:51:08.472Z,22.23
2023-05-07T13:53:40.885Z,22.23
2023-05-07T13:56:15.622Z,22.26
2023-05-07T13:58:59.005Z,22.26
2023-05-07T14:01:33.373Z,22.19
2023-05-07T14:04:06.121Z,22.16
2023-05-07T14:06:38.546Z,22.22
2023-05-07T14:09:13.395Z,22.24
2023-05-07T14:11:45.657Z,22.22
2023-05-07T14:14:18.065Z,22.24
2023-05-07T14:16:51.051Z,22.30
2023-05-07T14:19:25.682Z,22.34
2023-05-07T14:21:59.398Z,22.35
2023-05-07T14:24:38.264Z,22.36
2023-05-07T14:27:11.229Z,22.32
2023-05-07T14:29:44.213Z,22.31
2023-05-07T14:32:16.582Z,22.26
2023-05-07T14:34:49.266Z,22.25
2023-05-07T14:37:21.677Z,22.28
2023-05-07T14:39:54.050Z,22.30
2023-05-07T14:42:26.550Z,22.24
2023-05-07T14:44:58.819Z,22.23
2023-05-07T14:47:30.946Z,22.22
2023-05-07T14:50:03.445Z,22.17
2023-05-07T14:52:35.679Z,22.17
2023-05-07T14:55:09.740Z,22.18
2023-05-07T14:57:42.935Z,22.19
2023-05-07T15:00:16.823Z,22.17
2023-05-07T15:02:49.085Z,22.13
2023-05-07T15:05:21.635Z,22.05
2023-05-07T15:07:57.491Z,22.04
2023-05-07T15:10:30.210Z,22.05
2023-05-07T15:13:02.647Z,22.08
2023-05-07T15:15:35.046Z,22.08
2023-05-07T15:18:07.448Z,22.07
2023-05-07T15:20:40.585Z,22.06
2023-05-07T15:23:15.161Z,22.02
2023-05-07T15:25:49.689Z,21.98
2023-05-07T15:28:25.542Z,21.95
2023-05-07T15:30:57.897Z,21.92
2023-05-07T15:33:30.122Z,21.90
2023-05-07T15:36:04.168Z,21.89
2023-05-07T15:38:36.723Z,21.89
2023-05-07T15:41:10.964Z,21.88
2023-05-07T15:43:49.354Z,21.82
2023-05-07T15:46:24.700Z,21.77
2023-05-07T15:48:57.892Z,21.73
2023-05-07T15:51:31.982Z,21.73
2023-05-07T15:54:07.869Z,21.69
2023-05-07T15:56:40.106Z,21.73
2023-05-07T15:59:13.146Z,21.72
2023-05-07T16:01:45.897Z,21.70
2023-05-07T16:04:18.478Z,21.69
2023-05-07T16:06:50.680Z,21.67
2023-05-07T16:09:25.277Z,21.62
2023-05-07T16:11:57.655Z,21.59
2023-05-07T16:14:30.174Z,21.57
2023-05-07T16:17:04.928Z,21.57
2023-05-07T16:19:40.271Z,21.57
2023-05-07T16:22:13.592Z,21.53
2023-05-07T16:24:46.561Z,21.44
2023-05-07T16:27:18.974Z,21.41
2023-05-07T16:29:51.214Z,21.37
2023-05-07T16:32:23.597Z,21.32
2023-05-07T16:34:55.793Z,21.25
2023-05-07T16:37:28.167Z,21.22
2023-05-07T16:40:07.195Z,21.17
2023-05-07T16:42:39.561Z,21.13
2023-05-07T16:45:13.610Z,21.11
2023-05-07T16:47:46.231Z,21.08
2023-05-07T16:50:18.542Z,21.07
2023-05-07T16:52:50.900Z,21.05
2023-05-07T16:55:23.503Z,21.03
2023-05-07T16:57:55.847Z,20.98
2023-05-07T17:00:34.769Z,20.92
2023-05-07T17:03:14.874Z,20.90
2023-05-07T17:05:47.609Z,20.87
2023-05-07T17:08:19.849Z,20.82
2023-05-07T17:10:52.390Z,20.78
2023-05-07T17:13:24.831Z,20.75
2023-05-07T17:15:57.261Z,20.71
2023-05-07T17:18:50.586Z,20.70
2023-05-07T17:21:33.131Z,20.65
2023-05-07T17:24:07.589Z,20.61
2023-05-07T17:26:43.961Z,20.57
2023-05-07T17:29:16.486Z,20.50
2023-05-07T17:31:48.927Z,20.50
2023-05-07T17:34:21.535Z,20.45
2023-05-07T17:36:54.855Z,20.38
2023-05-07T17:39:27.376Z,20.31
2023-05-07T17:41:59.646Z,20.24
2023-05-07T17:44:31.799Z,20.16
2023-05-07T17:47:04.346Z,20.10
2023-05-07T17:49:37.390Z,20.05
2023-05-07T17:52:09.992Z,20.00
2023-05-07T17:54:42.529Z,19.96
2023-05-07T17:57:14.669Z,19.92
2023-05-07T17:59:47.126Z,19.85
2023-05-07T18:02:19.847Z,19.84
2023-05-07T18:04:52.285Z,19.80
2023-05-07T18:07:24.598Z,19.76
2023-05-07T18:09:56.741Z,19.71
2023-05-07T18:12:29.007Z,19.66
2023-05-07T18:15:01.137Z,19.62
2023-05-07T18:17:33.575Z,19.58
2023-05-07T18:20:09.133Z,19.54
2023-05-07T18:22:41.740Z,19.51
2023-05-07T18:25:13.954Z,19.47
2023-05-07T18:27:46.292Z,19.43
2023-05-07T18:30:18.808Z,19.42
2023-05-07T18:32:51.191Z,19.39
2023-05-07T18:35:25.097Z,19.36
2023-05-07T18:37:57.432Z,19.32
2023-05-07T18:40:30.198Z,19.28
2023-05-07T18:43:07.020Z,19.24
2023-05-07T18:45:39.854Z,19.21
2023-05-07T18:48:12.314Z,19.18
2023-05-07T18:50:46.268Z,19.15
2023-05-07T18:53:18.566Z,19.13
2023-05-07T18:55:54.214Z,19.14
2023-05-07T18:58:26.426Z,19.12
2023-05-07T19:00:58.828Z,19.11
2023-05-07T19:03:31.120Z,19.10
2023-05-07T19:06:05.552Z,19.06
2023-05-07T19:08:37.792Z,19.08
2023-05-07T19:11:10.181Z,19.09
2023-05-07T19:13:42.219Z,19.08
2023-05-07T19:16:14.527Z,19.07
2023-05-07T19:18:46.821Z,19.05
2023-05-07T19:21:19.056Z,19.04
2023-05-07T19:23:53.797Z,19.01
2023-05-07T19:26:26.781Z,19.00
2023-05-07T19:29:12.452Z,18.98
2023-05-07T19:31:49.942Z,18.96
2023-05-07T19:34:22.144Z,18.95
2023-05-07T19:36:54.326Z,18.94
2023-05-07T19:39:26.659Z,18.92
2023-05-07T19:41:59.248Z,18.92
2023-05-07T19:44:31.531Z,18.91
2023-05-07T19:47:05.772Z,18.91
2023-05-07T19:49:38.189Z,18.90
2023-05-07T19:52:10.388Z,18.87
2023-05-07T19:54:42.753Z,18.87
2023-05-07T19:57:15.505Z,18.87
2023-05-07T19:59:49.283Z,18.86
2023-05-07T20:02:22.004Z,18.86
2023-05-07T20:04:55.282Z,18.85
2023-05-07T20:07:28.094Z,18.84
2023-05-07T20:10:00.544Z,18.84
2023-05-07T20:12:32.838Z,18.83
2023-05-07T20:15:05.110Z,18.82
2023-05-07T20:17:37.367Z,18.81
2023-05-07T20:20:11.870Z,18.81
2023-05-07T20:22:44.093Z,18.80
2023-05-07T20:25:16.348Z,18.80
2023-05-07T20:27:48.757Z,18.79
2023-05-07T20:30:23.829Z,18.78
2023-05-07T20:32:56.242Z,18.75
2023-05-07T20:35:28.822Z,18.73
2023-05-07T20:38:01.149Z,18.72
2023-05-07T20:40:37.189Z,18.73
2023-05-07T20:43:09.642Z,18.74
2023-05-07T20:45:42.011Z,18.71
2023-05-07T20:48:14.724Z,18.68
2023-05-07T20:50:47.025Z,18.64
2023-05-07T20:53:19.265Z,18.50
2023-05-07T20:55:51.625Z,18.37
2023-05-07T20:58:25.382Z,18.26
2023-05-07T21:00:57.870Z,18.18
2023-05-07T21:03:30.314Z,18.10
2023-05-07T21:06:03.213Z,18.04
2023-05-07T21:08:35.827Z,18.00
2023-05-07T21:11:09.952Z,17.93
2023-05-07T21:13:42.308Z,17.88
2023-05-07T21:16:14.685Z,17.81
2023-05-07T21:18:46.871Z,17.76
2023-05-07T21:21:19.315Z,17.72
2023-05-07T21:23:53.487Z,17.63
2023-05-07T21:26:26.352Z,17.60
2023-05-07T21:28:58.648Z,17.57
2023-05-07T21:31:31.098Z,17.53
2023-05-07T21:34:03.657Z,17.47
2023-05-07T21:36:36.133Z,17.40
2023-05-07T21:39:09.165Z,17.30
2023-05-07T21:41:41.359Z,17.24
2023-05-07T21:44:13.531Z,17.15
2023-05-07T21:46:45.898Z,17.06
2023-05-07T21:49:18.149Z,16.98
2023-05-07T21:51:50.107Z,16.93
2023-05-07T21:54:22.309Z,16.85
2023-05-07T21:56:54.666Z,16.79
2023-05-07T21:59:27.104Z,16.72
2023-05-07T22:01:59.438Z,16.60
2023-05-07T22:04:31.618Z,16.54
2023-05-07T22:07:03.899Z,16.43
2023-05-07T22:09:36.300Z,16.31
2023-05-07T22:12:08.854Z,16.23
2023-05-07T22:14:41.044Z,16.16
2023-05-07T22:17:13.167Z,16.07
2023-05-07T22:19:45.415Z,15.98
2023-05-07T22:22:19.238Z,15.89
2023-05-07T22:24:51.516Z,15.83
2023-05-07T22:27:23.773Z,15.76
2023-05-07T22:29:57.108Z,15.69
2023-05-07T22:32:29.474Z,15.65
2023-05-07T22:35:01.620Z,15.60
2023-05-07T22:37:33.727Z,15.49
2023-05-07T22:40:07.332Z,15.37
2023-05-07T22:42:39.714Z,15.30
2023-05-07T22:45:13.590Z,15.26
2023-05-07T22:47:46.034Z,15.25
2023-05-07T22:50:18.711Z,15.23
2023-05-07T22:52:51.816Z,15.20
2023-05-07T22:55:24.238Z,15.15
2023-05-07T22:57:56.588Z,15.11
2023-05-07T23:00:29.117Z,15.06
2023-05-07T23:03:01.586Z,15.01
2023-05-07T23:05:33.886Z,14.96
2023-05-07T23:08:06.338Z,14.88
2023-05-07T23:10:38.586Z,14.86
2023-05-07T23:13:17.254Z,14.83
2023-05-07T23:15:50.880Z,14.78
2023-05-07T23:18:23.151Z,14.73
2023-05-07T23:20:55.331Z,14.72
2023-05-07T23:23:33.518Z,14.69
2023-05-07T23:26:05.656Z,14.64
2023-05-07T23:28:37.789Z,14.59
2023-05-07T23:31:12.905Z,14.54
2023-05-07T23:33:45.073Z,14.51
2023-05-07T23:36:17.234Z,14.48
2023-05-07T23:38:49.592Z,14.43
2023-05-07T23:41:21.590Z,14.40
2023-05-07T23:43:53.979Z,14.40
2023-05-07T23:46:26.969Z,14.41
2023-05-07T23:48:59.141Z,14.43
2023-05-07T23:51:31.597Z,14.42
2023-05-07T23:54:03.993Z,14.40
2023-05-07T23:56:36.080Z,14.38
2023-05-07T23:59:08.653Z,14.38
